createdAt,value
2017-05-26T00:00:05.936Z,20.13
2017-05-26T00:00:32.026Z,20.14
2017-05-26T00:00:58.153Z,20.16
2017-05-26T00:01:24.248Z,20.18
2017-05-26T00:01:50.356Z,20.14
2017-05-26T00:02:16.459Z,20.19
2017-05-26T00:02:42.620Z,20.16
2017-05-26T00:03:08.694Z,20.21
2017-05-26T00:03:34.827Z,20.18
2017-05-26T00:04:00.917Z,20.11
2017-05-26T00:04:27.014Z,20.14
2017-05-26T00:04:53.121Z,20.16
2017-05-26T00:05:19.213Z,20.21
2017-05-26T00:05:45.310Z,20.14
2017-05-26T00:06:11.446Z,20.18
2017-05-26T00:06:37.542Z,20.14
2017-05-26T00:07:03.678Z,20.09
2017-05-26T00:07:29.767Z,20.09
2017-05-26T00:07:55.893Z,20.07
2017-05-26T00:08:22.000Z,20.09
2017-05-26T00:08:48.145Z,20.03
2017-05-26T00:09:14.267Z,20.06
2017-05-26T00:09:40.402Z,19.99
2017-05-26T00:10:06.597Z,20.03
2017-05-26T00:10:32.690Z,19.91
2017-05-26T00:10:58.802Z,19.94
2017-05-26T00:11:24.955Z,19.99
2017-05-26T00:11:51.095Z,20
2017-05-26T00:12:17.220Z,19.94
2017-05-26T00:12:43.364Z,19.96
2017-05-26T00:13:09.554Z,19.99
2017-05-26T00:13:35.733Z,20.02
2017-05-26T00:14:01.850Z,20
2017-05-26T00:14:28.015Z,19.99
2017-05-26T00:14:54.191Z,20.02
2017-05-26T00:15:20.310Z,19.91
2017-05-26T00:15:46.446Z,20.02
2017-05-26T00:16:12.547Z,20.02
2017-05-26T00:16:38.642Z,20
2017-05-26T00:17:04.742Z,19.94
2017-05-26T00:17:30.850Z,20.03
2017-05-26T00:17:56.971Z,19.94
2017-05-26T00:18:23.124Z,20
2017-05-26T00:18:49.217Z,19.96
2017-05-26T00:19:15.402Z,19.92
2017-05-26T00:19:41.532Z,19.92
2017-05-26T00:20:07.623Z,19.88
2017-05-26T00:20:33.755Z,19.92
2017-05-26T00:20:59.863Z,19.81
2017-05-26T00:21:25.979Z,19.91
2017-05-26T00:21:52.080Z,19.77
2017-05-26T00:22:18.187Z,19.84
2017-05-26T00:22:44.299Z,19.86
2017-05-26T00:23:10.397Z,19.88
2017-05-26T00:23:36.495Z,19.88
2017-05-26T00:24:02.597Z,19.86
2017-05-26T00:24:28.735Z,19.81
2017-05-26T00:24:54.850Z,19.86
2017-05-26T00:25:20.999Z,19.82
2017-05-26T00:25:47.108Z,19.77
2017-05-26T00:26:13.199Z,19.84
2017-05-26T00:26:39.297Z,19.81
2017-05-26T00:27:05.458Z,19.77
2017-05-26T00:27:31.605Z,19.77
2017-05-26T00:27:57.722Z,19.69
2017-05-26T00:28:23.883Z,19.82
2017-05-26T00:28:50.033Z,19.67
2017-05-26T00:29:16.125Z,19.79
2017-05-26T00:29:42.285Z,19.7
2017-05-26T00:30:08.442Z,19.73
2017-05-26T00:30:34.533Z,19.77
2017-05-26T00:31:00.662Z,19.7
2017-05-26T00:31:26.771Z,19.71
2017-05-26T00:31:52.860Z,19.69
2017-05-26T00:32:18.960Z,19.77
2017-05-26T00:32:45.120Z,19.67
2017-05-26T00:33:11.212Z,19.67
2017-05-26T00:33:37.334Z,19.7
2017-05-26T00:34:03.470Z,19.67
2017-05-26T00:34:29.564Z,19.69
2017-05-26T00:34:55.672Z,19.7
2017-05-26T00:35:21.789Z,19.66
2017-05-26T00:35:47.891Z,19.67
2017-05-26T00:36:14.026Z,19.69
2017-05-26T00:36:40.144Z,19.69
2017-05-26T00:37:06.265Z,19.7
2017-05-26T00:37:32.372Z,19.69
2017-05-26T00:37:58.523Z,19.7
2017-05-26T00:38:24.692Z,19.69
2017-05-26T00:38:50.828Z,19.66
2017-05-26T00:39:16.926Z,19.66
2017-05-26T00:39:43.065Z,19.66
2017-05-26T00:40:09.196Z,19.62
2017-05-26T00:40:35.343Z,19.66
2017-05-26T00:41:01.450Z,19.62
2017-05-26T00:41:27.544Z,19.55
2017-05-26T00:41:53.635Z,19.62
2017-05-26T00:42:19.772Z,19.58
2017-05-26T00:42:45.953Z,19.59
2017-05-26T00:43:12.094Z,19.56
2017-05-26T00:43:38.255Z,19.59
2017-05-26T00:44:04.411Z,19.58
2017-05-26T00:44:30.557Z,19.63
2017-05-26T00:44:56.712Z,19.59
2017-05-26T00:45:22.846Z,19.52
2017-05-26T00:45:48.964Z,19.52
2017-05-26T00:46:15.091Z,19.51
2017-05-26T00:46:41.206Z,19.51
2017-05-26T00:47:07.316Z,19.48
2017-05-26T00:47:33.416Z,19.52
2017-05-26T00:47:59.556Z,19.49
2017-05-26T00:48:25.660Z,19.49
2017-05-26T00:48:51.767Z,19.47
2017-05-26T00:49:17.855Z,19.51
2017-05-26T00:49:43.980Z,19.54
2017-05-26T00:50:10.144Z,19.51
2017-05-26T00:50:36.263Z,19.48
2017-05-26T00:51:02.411Z,19.51
2017-05-26T00:51:28.507Z,19.45
2017-05-26T00:51:54.637Z,19.45
2017-05-26T00:52:20.772Z,19.44
2017-05-26T00:52:46.912Z,19.36
2017-05-26T00:53:13.037Z,19.44
2017-05-26T00:53:39.203Z,19.41
2017-05-26T00:54:05.322Z,19.34
2017-05-26T00:54:31.418Z,19.37
2017-05-26T00:54:57.581Z,19.36
2017-05-26T00:55:23.675Z,19.31
2017-05-26T00:55:49.839Z,19.31
2017-05-26T00:56:15.952Z,19.31
2017-05-26T00:56:42.076Z,19.39
2017-05-26T00:57:08.204Z,19.33
2017-05-26T00:57:34.350Z,19.33
2017-05-26T00:58:00.496Z,19.27
2017-05-26T00:58:26.658Z,19.3
2017-05-26T00:58:52.804Z,19.39
2017-05-26T00:59:18.942Z,19.44
2017-05-26T00:59:45.083Z,19.41
2017-05-26T01:00:11.209Z,19.34
2017-05-26T01:00:37.324Z,19.34
2017-05-26T01:01:03.432Z,19.29
2017-05-26T01:01:29.532Z,19.33
2017-05-26T01:01:55.623Z,19.3
2017-05-26T01:02:21.729Z,19.34
2017-05-26T01:02:47.821Z,19.29
2017-05-26T01:03:13.961Z,19.27
2017-05-26T01:03:40.058Z,19.3
2017-05-26T01:04:06.225Z,19.24
2017-05-26T01:04:32.359Z,19.33
2017-05-26T01:04:58.514Z,19.34
2017-05-26T01:05:24.607Z,19.27
2017-05-26T01:05:50.712Z,19.36
2017-05-26T01:06:16.846Z,19.31
2017-05-26T01:06:42.934Z,19.31
2017-05-26T01:07:09.063Z,19.36
2017-05-26T01:07:35.200Z,19.31
2017-05-26T01:08:01.341Z,19.36
2017-05-26T01:08:27.500Z,19.27
2017-05-26T01:08:53.614Z,19.33
2017-05-26T01:09:19.768Z,19.31
2017-05-26T01:09:45.875Z,19.37
2017-05-26T01:10:11.961Z,19.34
2017-05-26T01:10:38.064Z,19.31
2017-05-26T01:11:04.254Z,19.27
2017-05-26T01:11:30.371Z,19.3
2017-05-26T01:11:56.469Z,19.22
2017-05-26T01:12:22.604Z,19.15
2017-05-26T01:12:48.721Z,19.15
2017-05-26T01:13:14.839Z,19.12
2017-05-26T01:13:40.980Z,19.19
2017-05-26T01:14:07.160Z,19.11
2017-05-26T01:14:33.252Z,19.18
2017-05-26T01:14:59.418Z,19.16
2017-05-26T01:15:25.604Z,19.16
2017-05-26T01:15:51.743Z,19.12
2017-05-26T01:16:17.850Z,19.18
2017-05-26T01:16:44.015Z,19.22
2017-05-26T01:17:10.102Z,19.14
2017-05-26T01:17:36.206Z,19.11
2017-05-26T01:18:02.373Z,19.21
2017-05-26T01:18:28.464Z,19.16
2017-05-26T01:18:54.611Z,19.15
2017-05-26T01:19:20.708Z,19.18
2017-05-26T01:19:46.843Z,19.16
2017-05-26T01:20:12.995Z,19.09
2017-05-26T01:20:39.108Z,19.14
2017-05-26T01:21:05.210Z,19.24
2017-05-26T01:21:31.317Z,19.12
2017-05-26T01:21:57.462Z,19.12
2017-05-26T01:22:23.583Z,19.26
2017-05-26T01:22:49.692Z,19.21
2017-05-26T01:23:15.814Z,19.12
2017-05-26T01:23:41.954Z,19.27
2017-05-26T01:24:08.121Z,19.14
2017-05-26T01:24:34.272Z,19.12
2017-05-26T01:25:00.406Z,19.29
2017-05-26T01:25:26.522Z,19.26
2017-05-26T01:25:52.646Z,19.11
2017-05-26T01:26:18.751Z,19.21
2017-05-26T01:26:44.847Z,19.15
2017-05-26T01:27:10.939Z,19.15
2017-05-26T01:27:37.051Z,19.26
2017-05-26T01:28:03.178Z,19.26
2017-05-26T01:28:29.293Z,19.15
2017-05-26T01:28:55.456Z,19.24
2017-05-26T01:29:21.582Z,19.12
2017-05-26T01:29:47.698Z,19.14
2017-05-26T01:30:13.826Z,19.12
2017-05-26T01:30:39.944Z,19.15
2017-05-26T01:31:06.057Z,19.15
2017-05-26T01:31:32.155Z,19.26
2017-05-26T01:31:58.297Z,19.12
2017-05-26T01:32:24.404Z,19.12
2017-05-26T01:32:50.532Z,19.16
2017-05-26T01:33:16.652Z,19.26
2017-05-26T01:33:42.754Z,19.24
2017-05-26T01:34:08.889Z,19.26
2017-05-26T01:34:34.975Z,19.21
2017-05-26T01:35:01.127Z,19.16
2017-05-26T01:35:27.261Z,19.21
2017-05-26T01:35:53.379Z,19.24
2017-05-26T01:36:19.512Z,19.12
2017-05-26T01:36:45.629Z,19.24
2017-05-26T01:37:11.760Z,19.15
2017-05-26T01:37:37.897Z,19.22
2017-05-26T01:38:04.039Z,19.26
2017-05-26T01:38:30.192Z,19.19
2017-05-26T01:38:56.355Z,19.14
2017-05-26T01:39:22.474Z,19.18
2017-05-26T01:39:48.595Z,19.26
2017-05-26T01:40:14.733Z,19.12
2017-05-26T01:40:40.853Z,19.19
2017-05-26T01:41:06.995Z,19.15
2017-05-26T01:41:33.122Z,19.16
2017-05-26T01:41:59.224Z,19.16
2017-05-26T01:42:25.357Z,19.15
2017-05-26T01:42:51.525Z,19.26
2017-05-26T01:43:17.647Z,19.21
2017-05-26T01:43:43.754Z,19.04
2017-05-26T01:44:09.849Z,19.26
2017-05-26T01:44:35.940Z,19.14
2017-05-26T01:45:02.108Z,19.22
2017-05-26T01:45:28.217Z,19.22
2017-05-26T01:45:54.299Z,19.22
2017-05-26T01:46:20.458Z,19.21
2017-05-26T01:46:46.644Z,19.16
2017-05-26T01:47:12.746Z,19.11
2017-05-26T01:47:38.840Z,19.12
2017-05-26T01:48:04.978Z,19.09
2017-05-26T01:48:31.171Z,19.16
2017-05-26T01:48:57.268Z,19.09
2017-05-26T01:49:23.386Z,19.04
2017-05-26T01:49:49.519Z,19.15
2017-05-26T01:50:15.673Z,19.12
2017-05-26T01:50:41.766Z,19.08
2017-05-26T01:51:07.867Z,19.09
2017-05-26T01:51:33.974Z,19.09
2017-05-26T01:52:00.061Z,19.07
2017-05-26T01:52:26.235Z,19.08
2017-05-26T01:52:52.328Z,19.09
2017-05-26T01:53:18.464Z,19.09
2017-05-26T01:53:44.620Z,19.12
2017-05-26T01:54:10.737Z,19.07
2017-05-26T01:54:36.896Z,19.11
2017-05-26T01:55:03.057Z,19.12
2017-05-26T01:55:29.170Z,19.09
2017-05-26T01:55:55.323Z,19.08
2017-05-26T01:56:21.431Z,19.11
2017-05-26T01:56:47.523Z,19.11
2017-05-26T01:57:13.671Z,19.08
2017-05-26T01:57:39.778Z,19.12
2017-05-26T01:58:05.872Z,19.07
2017-05-26T01:58:31.964Z,18.98
2017-05-26T01:58:58.073Z,18.99
2017-05-26T01:59:24.222Z,19.09
2017-05-26T01:59:50.347Z,19.09
2017-05-26T02:00:16.496Z,19.04
2017-05-26T02:00:42.621Z,19.11
2017-05-26T02:01:08.762Z,19.09
2017-05-26T02:01:34.863Z,19.08
2017-05-26T02:02:01.028Z,19.08
2017-05-26T02:02:27.145Z,19.07
2017-05-26T02:02:53.297Z,18.96
2017-05-26T02:03:19.433Z,18.93
2017-05-26T02:03:45.574Z,18.98
2017-05-26T02:04:11.729Z,19.07
2017-05-26T02:04:37.845Z,19.07
2017-05-26T02:05:03.971Z,19.04
2017-05-26T02:05:30.079Z,18.99
2017-05-26T02:05:56.191Z,19.11
2017-05-26T02:06:22.292Z,19.04
2017-05-26T02:06:48.429Z,18.96
2017-05-26T02:07:14.577Z,19.09
2017-05-26T02:07:40.700Z,18.99
2017-05-26T02:08:06.839Z,19
2017-05-26T02:08:32.934Z,18.98
2017-05-26T02:08:59.078Z,19.04
2017-05-26T02:09:25.231Z,19
2017-05-26T02:09:51.385Z,19.04
2017-05-26T02:10:17.489Z,19.04
2017-05-26T02:10:43.584Z,19
2017-05-26T02:11:09.709Z,19
2017-05-26T02:11:35.842Z,19
2017-05-26T02:12:01.938Z,18.99
2017-05-26T02:12:28.055Z,19.04
2017-05-26T02:12:54.166Z,18.98
2017-05-26T02:13:20.294Z,18.98
2017-05-26T02:13:46.437Z,19
2017-05-26T02:14:12.567Z,19.07
2017-05-26T02:14:38.695Z,18.93
2017-05-26T02:15:04.846Z,19.02
2017-05-26T02:15:30.972Z,19.09
2017-05-26T02:15:57.086Z,19.11
2017-05-26T02:16:23.225Z,19
2017-05-26T02:16:49.350Z,18.93
2017-05-26T02:17:15.514Z,18.98
2017-05-26T02:17:41.651Z,19.04
2017-05-26T02:18:07.779Z,18.99
2017-05-26T02:18:33.893Z,18.98
2017-05-26T02:19:00.023Z,18.98
2017-05-26T02:19:26.127Z,19.07
2017-05-26T02:19:52.217Z,19.07
2017-05-26T02:20:18.368Z,19
2017-05-26T02:20:44.486Z,19.04
2017-05-26T02:21:10.592Z,18.99
2017-05-26T02:21:36.719Z,19.02
2017-05-26T02:22:02.862Z,18.99
2017-05-26T02:22:28.966Z,18.99
2017-05-26T02:22:55.103Z,18.98
2017-05-26T02:23:21.191Z,19
2017-05-26T02:23:47.345Z,19
2017-05-26T02:24:13.480Z,19.04
2017-05-26T02:24:39.602Z,18.95
2017-05-26T02:25:05.771Z,18.98
2017-05-26T02:25:31.906Z,19
2017-05-26T02:25:58.022Z,18.96
2017-05-26T02:26:24.131Z,18.86
2017-05-26T02:26:50.242Z,18.88
2017-05-26T02:27:16.344Z,18.83
2017-05-26T02:27:42.478Z,18.83
2017-05-26T02:28:08.618Z,18.9
2017-05-26T02:28:34.716Z,18.89
2017-05-26T02:29:00.880Z,18.9
2017-05-26T02:29:26.975Z,18.89
2017-05-26T02:29:53.373Z,18.89
2017-05-26T02:30:19.488Z,18.84
2017-05-26T02:30:45.610Z,18.84
2017-05-26T02:31:11.715Z,18.88
2017-05-26T02:31:37.808Z,18.84
2017-05-26T02:32:03.939Z,18.88
2017-05-26T02:32:30.031Z,18.8
2017-05-26T02:32:56.186Z,18.86
2017-05-26T02:33:22.292Z,18.81
2017-05-26T02:33:48.405Z,18.86
2017-05-26T02:34:14.505Z,18.83
2017-05-26T02:34:40.614Z,18.84
2017-05-26T02:35:06.769Z,18.83
2017-05-26T02:35:32.832Z,18.81
2017-05-26T02:35:58.966Z,18.89
2017-05-26T02:36:25.115Z,18.84
2017-05-26T02:36:51.227Z,18.89
2017-05-26T02:37:17.360Z,18.83
2017-05-26T02:37:43.492Z,18.8
2017-05-26T02:38:09.649Z,18.83
2017-05-26T02:38:35.771Z,18.83
2017-05-26T02:39:01.918Z,18.75
2017-05-26T02:39:28.050Z,18.71
2017-05-26T02:39:54.143Z,18.78
2017-05-26T02:40:20.236Z,18.78
2017-05-26T02:40:46.345Z,18.74
2017-05-26T02:41:12.443Z,18.75
2017-05-26T02:41:38.533Z,18.71
2017-05-26T02:42:04.665Z,18.73
2017-05-26T02:42:30.821Z,18.75
2017-05-26T02:42:56.961Z,18.71
2017-05-26T02:43:23.116Z,18.7
2017-05-26T02:43:49.279Z,18.66
2017-05-26T02:44:15.426Z,18.68
2017-05-26T02:44:41.464Z,18.73
2017-05-26T02:45:07.599Z,18.65
2017-05-26T02:45:33.717Z,18.62
2017-05-26T02:45:59.819Z,18.6
2017-05-26T02:46:25.926Z,18.65
2017-05-26T02:46:52.018Z,18.59
2017-05-26T02:47:18.108Z,18.68
2017-05-26T02:47:44.220Z,18.68
2017-05-26T02:48:10.346Z,18.65
2017-05-26T02:48:36.522Z,18.62
2017-05-26T02:49:02.615Z,18.71
2017-05-26T02:49:28.737Z,18.6
2017-05-26T02:49:54.845Z,18.56
2017-05-26T02:50:20.965Z,18.65
2017-05-26T02:50:47.102Z,18.65
2017-05-26T02:51:13.211Z,18.62
2017-05-26T02:51:39.309Z,18.62
2017-05-26T02:52:05.400Z,18.65
2017-05-26T02:52:31.534Z,18.68
2017-05-26T02:52:57.636Z,18.68
2017-05-26T02:53:23.728Z,18.65
2017-05-26T02:53:49.830Z,18.68
2017-05-26T02:54:15.920Z,18.6
2017-05-26T02:54:42.113Z,18.62
2017-05-26T02:55:08.287Z,18.62
2017-05-26T02:55:34.379Z,18.59
2017-05-26T02:56:00.509Z,18.56
2017-05-26T02:56:26.638Z,18.58
2017-05-26T02:56:52.778Z,18.5
2017-05-26T02:57:18.906Z,18.56
2017-05-26T02:57:45.012Z,18.5
2017-05-26T02:58:11.127Z,18.52
2017-05-26T02:58:37.327Z,18.49
2017-05-26T02:59:03.462Z,18.45
2017-05-26T02:59:29.606Z,18.38
2017-05-26T02:59:55.765Z,18.35
2017-05-26T03:00:21.881Z,18.44
2017-05-26T03:00:48.013Z,18.45
2017-05-26T03:01:14.121Z,18.47
2017-05-26T03:01:40.286Z,18.4
2017-05-26T03:02:06.386Z,18.38
2017-05-26T03:02:32.581Z,18.41
2017-05-26T03:02:58.672Z,18.37
2017-05-26T03:03:24.794Z,18.43
2017-05-26T03:03:50.898Z,18.34
2017-05-26T03:04:17.043Z,18.31
2017-05-26T03:04:43.184Z,18.34
2017-05-26T03:05:09.314Z,18.33
2017-05-26T03:05:35.416Z,18.35
2017-05-26T03:06:01.552Z,18.37
2017-05-26T03:06:27.645Z,18.33
2017-05-26T03:06:53.818Z,18.37
2017-05-26T03:07:19.925Z,18.37
2017-05-26T03:07:46.070Z,18.28
2017-05-26T03:08:12.186Z,18.29
2017-05-26T03:08:38.325Z,18.28
2017-05-26T03:09:04.452Z,18.23
2017-05-26T03:09:30.618Z,18.26
2017-05-26T03:09:56.752Z,18.28
2017-05-26T03:10:22.895Z,18.26
2017-05-26T03:10:49.049Z,18.31
2017-05-26T03:11:15.142Z,18.22
2017-05-26T03:11:41.234Z,18.23
2017-05-26T03:12:07.376Z,18.2
2017-05-26T03:12:33.500Z,18.22
2017-05-26T03:12:59.663Z,18.22
2017-05-26T03:13:25.823Z,18.19
2017-05-26T03:13:52.008Z,18.2
2017-05-26T03:14:18.124Z,18.2
2017-05-26T03:14:44.276Z,18.25
2017-05-26T03:15:10.441Z,18.22
2017-05-26T03:15:36.555Z,18.22
2017-05-26T03:16:02.654Z,18.2
2017-05-26T03:16:28.770Z,18.22
2017-05-26T03:16:54.876Z,18.22
2017-05-26T03:17:20.978Z,18.2
2017-05-26T03:17:47.119Z,18.23
2017-05-26T03:18:13.247Z,18.25
2017-05-26T03:18:39.381Z,18.2
2017-05-26T03:19:05.545Z,18.25
2017-05-26T03:19:31.672Z,18.25
2017-05-26T03:19:57.779Z,18.25
2017-05-26T03:20:23.895Z,18.19
2017-05-26T03:20:49.993Z,18.2
2017-05-26T03:21:16.126Z,18.11
2017-05-26T03:21:42.223Z,18.18
2017-05-26T03:22:08.355Z,18.11
2017-05-26T03:22:34.469Z,18.11
2017-05-26T03:23:00.593Z,18.16
2017-05-26T03:23:26.728Z,18.16
2017-05-26T03:23:52.901Z,18.15
2017-05-26T03:24:19.021Z,18.15
2017-05-26T03:24:45.128Z,18.08
2017-05-26T03:25:11.330Z,18.13
2017-05-26T03:25:37.472Z,18.1
2017-05-26T03:26:03.606Z,18.08
2017-05-26T03:26:29.729Z,18.13
2017-05-26T03:26:55.820Z,18.1
2017-05-26T03:27:21.960Z,18.15
2017-05-26T03:27:48.092Z,18.11
2017-05-26T03:28:14.256Z,18.03
2017-05-26T03:28:40.412Z,18.11
2017-05-26T03:29:06.574Z,18.13
2017-05-26T03:29:32.661Z,18.05
2017-05-26T03:29:58.786Z,18.16
2017-05-26T03:30:24.893Z,18.16
2017-05-26T03:30:51.039Z,18.15
2017-05-26T03:31:17.161Z,18.03
2017-05-26T03:31:43.321Z,18.1
2017-05-26T03:32:09.418Z,18.08
2017-05-26T03:32:35.533Z,18.2
2017-05-26T03:33:01.664Z,18.13
2017-05-26T03:33:27.791Z,18.16
2017-05-26T03:33:53.953Z,18.19
2017-05-26T03:34:20.097Z,18.1
2017-05-26T03:34:46.196Z,18.1
2017-05-26T03:35:12.332Z,18.13
2017-05-26T03:35:38.428Z,18.07
2017-05-26T03:36:04.518Z,18.1
2017-05-26T03:36:30.655Z,18.1
2017-05-26T03:36:56.753Z,18.1
2017-05-26T03:37:22.870Z,18.18
2017-05-26T03:37:49.006Z,18.16
2017-05-26T03:38:15.191Z,18.13
2017-05-26T03:38:41.318Z,18.15
2017-05-26T03:39:07.442Z,18.11
2017-05-26T03:39:33.627Z,18.11
2017-05-26T03:39:59.738Z,18.13
2017-05-26T03:40:25.889Z,18.1
2017-05-26T03:40:51.979Z,18.15
2017-05-26T03:41:18.086Z,18.1
2017-05-26T03:41:44.187Z,18.1
2017-05-26T03:42:10.327Z,18.08
2017-05-26T03:42:36.434Z,18.1
2017-05-26T03:43:02.598Z,18.07
2017-05-26T03:43:28.712Z,18.18
2017-05-26T03:43:54.838Z,18.1
2017-05-26T03:44:21.008Z,18.1
2017-05-26T03:44:47.140Z,18.22
2017-05-26T03:45:13.294Z,18.11
2017-05-26T03:45:39.385Z,18.13
2017-05-26T03:46:05.489Z,18.15
2017-05-26T03:46:31.595Z,18.13
2017-05-26T03:46:57.683Z,18.16
2017-05-26T03:47:23.811Z,18.18
2017-05-26T03:47:49.946Z,18.22
2017-05-26T03:48:16.121Z,18.18
2017-05-26T03:48:42.218Z,18.16
2017-05-26T03:49:08.377Z,18.11
2017-05-26T03:49:34.471Z,18.15
2017-05-26T03:50:00.607Z,18.1
2017-05-26T03:50:26.696Z,18.08
2017-05-26T03:50:52.824Z,18.07
2017-05-26T03:51:18.961Z,18.1
2017-05-26T03:51:45.055Z,18.08
2017-05-26T03:52:11.155Z,18.16
2017-05-26T03:52:37.261Z,18.18
2017-05-26T03:53:03.430Z,18.18
2017-05-26T03:53:29.595Z,18.16
2017-05-26T03:53:55.732Z,18.13
2017-05-26T03:54:21.883Z,18.13
2017-05-26T03:54:48.021Z,18.16
2017-05-26T03:55:14.153Z,18.25
2017-05-26T03:55:40.247Z,18.19
2017-05-26T03:56:06.382Z,18.15
2017-05-26T03:56:32.476Z,18.13
2017-05-26T03:56:58.569Z,18.19
2017-05-26T03:57:24.679Z,18.2
2017-05-26T03:57:50.805Z,18.08
2017-05-26T03:58:16.946Z,18.15
2017-05-26T03:58:43.133Z,18.07
2017-05-26T03:59:09.259Z,18.2
2017-05-26T03:59:35.421Z,18.11
2017-05-26T04:00:01.551Z,18.19
2017-05-26T04:00:27.659Z,18.23
2017-05-26T04:00:53.804Z,18.22
2017-05-26T04:01:19.903Z,18.19
2017-05-26T04:01:45.995Z,18.19
2017-05-26T04:02:12.131Z,18.15
2017-05-26T04:02:38.262Z,18.2
2017-05-26T04:03:04.400Z,18.28
2017-05-26T04:03:30.532Z,18.25
2017-05-26T04:03:56.665Z,18.2
2017-05-26T04:04:22.756Z,18.2
2017-05-26T04:04:48.905Z,18.25
2017-05-26T04:05:15.038Z,18.23
2017-05-26T04:05:41.178Z,18.16
2017-05-26T04:06:07.297Z,18.28
2017-05-26T04:06:33.433Z,18.29
2017-05-26T04:06:59.605Z,18.26
2017-05-26T04:07:25.769Z,18.31
2017-05-26T04:07:51.820Z,18.28
2017-05-26T04:08:17.942Z,18.26
2017-05-26T04:08:44.077Z,18.26
2017-05-26T04:09:10.170Z,18.26
2017-05-26T04:09:36.296Z,18.35
2017-05-26T04:10:02.456Z,18.28
2017-05-26T04:10:28.551Z,18.34
2017-05-26T04:10:54.665Z,18.35
2017-05-26T04:11:20.774Z,18.37
2017-05-26T04:11:46.896Z,18.37
2017-05-26T04:12:13.009Z,18.37
2017-05-26T04:12:39.147Z,18.41
2017-05-26T04:13:05.355Z,18.41
2017-05-26T04:13:31.471Z,18.41
2017-05-26T04:13:57.602Z,18.4
2017-05-26T04:14:23.764Z,18.44
2017-05-26T04:14:49.897Z,18.45
2017-05-26T04:15:16.048Z,18.4
2017-05-26T04:15:42.184Z,18.44
2017-05-26T04:16:08.305Z,18.38
2017-05-26T04:16:34.403Z,18.38
2017-05-26T04:17:00.536Z,18.47
2017-05-26T04:17:26.630Z,18.41
2017-05-26T04:17:52.761Z,18.45
2017-05-26T04:18:18.904Z,18.4
2017-05-26T04:18:45.053Z,18.4
2017-05-26T04:19:11.188Z,18.43
2017-05-26T04:19:37.306Z,18.45
2017-05-26T04:20:03.452Z,18.41
2017-05-26T04:20:29.560Z,18.52
2017-05-26T04:20:55.653Z,18.41
2017-05-26T04:21:21.744Z,18.52
2017-05-26T04:21:47.910Z,18.52
2017-05-26T04:22:14.034Z,18.53
2017-05-26T04:22:40.127Z,18.43
2017-05-26T04:23:06.257Z,18.44
2017-05-26T04:23:32.350Z,18.33
2017-05-26T04:23:58.512Z,18.4
2017-05-26T04:24:24.632Z,18.35
2017-05-26T04:24:50.733Z,18.4
2017-05-26T04:25:16.862Z,18.38
2017-05-26T04:25:42.962Z,18.38
2017-05-26T04:26:09.054Z,18.41
2017-05-26T04:26:35.161Z,18.41
2017-05-26T04:27:01.260Z,18.44
2017-05-26T04:27:27.402Z,18.41
2017-05-26T04:27:53.535Z,18.49
2017-05-26T04:28:19.674Z,18.44
2017-05-26T04:28:45.821Z,18.37
2017-05-26T04:29:11.918Z,18.47
2017-05-26T04:29:38.033Z,18.44
2017-05-26T04:30:04.159Z,18.4
2017-05-26T04:30:30.287Z,18.49
2017-05-26T04:30:56.378Z,18.5
2017-05-26T04:31:22.485Z,18.55
2017-05-26T04:31:48.588Z,18.56
2017-05-26T04:32:14.676Z,18.52
2017-05-26T04:32:40.805Z,18.5
2017-05-26T04:33:06.939Z,18.53
2017-05-26T04:33:33.082Z,18.56
2017-05-26T04:33:59.227Z,18.53
2017-05-26T04:34:25.361Z,18.56
2017-05-26T04:34:51.478Z,18.52
2017-05-26T04:35:17.620Z,18.55
2017-05-26T04:35:43.730Z,18.52
2017-05-26T04:36:09.826Z,18.49
2017-05-26T04:36:35.926Z,18.5
2017-05-26T04:37:02.024Z,18.53
2017-05-26T04:37:28.126Z,18.52
2017-05-26T04:37:54.244Z,18.52
2017-05-26T04:38:20.383Z,18.56
2017-05-26T04:38:46.560Z,18.52
2017-05-26T04:39:12.646Z,18.55
2017-05-26T04:39:38.747Z,18.53
2017-05-26T04:40:04.872Z,18.49
2017-05-26T04:40:31.006Z,18.55
2017-05-26T04:40:57.132Z,18.53
2017-05-26T04:41:23.222Z,18.5
2017-05-26T04:41:49.326Z,18.58
2017-05-26T04:42:15.433Z,18.68
2017-05-26T04:42:41.571Z,18.6
2017-05-26T04:43:07.747Z,18.66
2017-05-26T04:43:33.911Z,18.74
2017-05-26T04:44:00.105Z,18.81
2017-05-26T04:44:26.252Z,18.68
2017-05-26T04:44:52.385Z,18.78
2017-05-26T04:45:18.505Z,18.78
2017-05-26T04:45:44.614Z,18.84
2017-05-26T04:46:10.701Z,19.02
2017-05-26T04:46:36.882Z,19.19
2017-05-26T04:47:03.017Z,19.45
2017-05-26T04:47:29.109Z,19.77
2017-05-26T04:47:55.231Z,20.1
2017-05-26T04:48:21.365Z,20.4
2017-05-26T04:48:47.485Z,20.56
2017-05-26T04:49:13.601Z,20.92
2017-05-26T04:49:39.712Z,21.09
2017-05-26T04:50:05.837Z,21.24
2017-05-26T04:50:31.952Z,21.51
2017-05-26T04:50:58.110Z,21.72
2017-05-26T04:51:24.228Z,21.77
2017-05-26T04:51:50.362Z,21.95
2017-05-26T04:52:16.481Z,22.1
2017-05-26T04:52:42.599Z,22.22
2017-05-26T04:53:08.766Z,22.26
2017-05-26T04:53:34.943Z,22.39
2017-05-26T04:54:01.061Z,22.26
2017-05-26T04:54:27.196Z,22.3
2017-05-26T04:54:53.354Z,22.28
2017-05-26T04:55:19.469Z,22.11
2017-05-26T04:55:45.573Z,22.11
2017-05-26T04:56:11.682Z,22.11
2017-05-26T04:56:37.768Z,21.98
2017-05-26T04:57:03.896Z,21.88
2017-05-26T04:57:30.032Z,21.8
2017-05-26T04:57:56.155Z,21.76
2017-05-26T04:58:22.295Z,21.76
2017-05-26T04:58:48.464Z,21.67
2017-05-26T04:59:14.581Z,21.69
2017-05-26T04:59:40.724Z,21.77
2017-05-26T05:00:06.862Z,21.6
2017-05-26T05:00:32.960Z,21.55
2017-05-26T05:00:59.077Z,21.46
2017-05-26T05:01:25.187Z,21.48
2017-05-26T05:01:51.286Z,21.4
2017-05-26T05:02:17.386Z,21.21
2017-05-26T05:02:43.481Z,21.11
2017-05-26T05:03:09.592Z,21.02
2017-05-26T05:03:35.759Z,21.03
2017-05-26T05:04:01.887Z,21.09
2017-05-26T05:04:28.051Z,20.88
2017-05-26T05:04:54.183Z,20.87
2017-05-26T05:05:20.313Z,20.81
2017-05-26T05:05:46.431Z,20.6
2017-05-26T05:06:12.536Z,20.56
2017-05-26T05:06:38.671Z,20.43
2017-05-26T05:07:04.783Z,20.22
2017-05-26T05:07:30.884Z,20.09
2017-05-26T05:07:57.005Z,19.99
2017-05-26T05:08:23.115Z,19.89
2017-05-26T05:08:49.244Z,19.71
2017-05-26T05:09:15.362Z,19.67
2017-05-26T05:09:41.466Z,19.64
2017-05-26T05:10:07.629Z,19.49
2017-05-26T05:10:33.715Z,19.31
2017-05-26T05:10:59.817Z,19.29
2017-05-26T05:11:25.980Z,19.15
2017-05-26T05:11:52.102Z,19.16
2017-05-26T05:12:18.222Z,19.22
2017-05-26T05:12:44.330Z,19.19
2017-05-26T05:13:10.427Z,19
2017-05-26T05:13:36.592Z,18.99
2017-05-26T05:14:02.685Z,18.89
2017-05-26T05:14:28.810Z,18.88
2017-05-26T05:14:54.918Z,18.86
2017-05-26T05:15:21.035Z,18.9
2017-05-26T05:15:47.159Z,18.88
2017-05-26T05:16:13.264Z,18.81
2017-05-26T05:16:39.383Z,18.86
2017-05-26T05:17:05.474Z,18.88
2017-05-26T05:17:31.588Z,18.93
2017-05-26T05:17:57.715Z,18.89
2017-05-26T05:18:23.911Z,18.9
2017-05-26T05:18:50.008Z,18.95
2017-05-26T05:19:16.129Z,19.11
2017-05-26T05:19:42.263Z,18.99
2017-05-26T05:20:08.409Z,19.09
2017-05-26T05:20:34.500Z,18.93
2017-05-26T05:21:00.611Z,19
2017-05-26T05:21:26.707Z,19.07
2017-05-26T05:21:52.820Z,19.08
2017-05-26T05:22:18.930Z,19.08
2017-05-26T05:22:45.028Z,19
2017-05-26T05:23:11.143Z,18.93
2017-05-26T05:23:37.273Z,18.9
2017-05-26T05:24:03.436Z,18.8
2017-05-26T05:24:29.556Z,18.88
2017-05-26T05:24:55.684Z,18.84
2017-05-26T05:25:21.801Z,18.81
2017-05-26T05:25:47.908Z,18.83
2017-05-26T05:26:14.069Z,18.8
2017-05-26T05:26:40.229Z,18.86
2017-05-26T05:27:06.334Z,18.75
2017-05-26T05:27:32.441Z,18.73
2017-05-26T05:27:58.529Z,18.73
2017-05-26T05:28:24.631Z,18.65
2017-05-26T05:28:50.822Z,18.71
2017-05-26T05:29:16.914Z,18.77
2017-05-26T05:29:43.038Z,18.7
2017-05-26T05:30:09.162Z,18.8
2017-05-26T05:30:35.296Z,18.73
2017-05-26T05:31:01.427Z,18.73
2017-05-26T05:31:27.539Z,18.77
2017-05-26T05:31:53.638Z,18.73
2017-05-26T05:32:19.747Z,18.75
2017-05-26T05:32:45.862Z,18.73
2017-05-26T05:33:11.984Z,18.81
2017-05-26T05:33:38.091Z,18.77
2017-05-26T05:34:04.184Z,18.74
2017-05-26T05:34:30.278Z,18.75
2017-05-26T05:34:56.413Z,18.73
2017-05-26T05:35:22.510Z,18.75
2017-05-26T05:35:48.665Z,18.81
2017-05-26T05:36:14.939Z,18.74
2017-05-26T05:36:41.058Z,18.78
2017-05-26T05:37:07.222Z,18.77
2017-05-26T05:37:33.315Z,18.8
2017-05-26T05:37:59.433Z,18.68